Warrenton, Oregon
Current Conditions -  °F | °C
As of 5:55 AM on Monday 26 Jan 2015 (Local Time) from KAST Reporting Station
Haze Haze  
Wind Chill: 39°   Ceiling: Unl
Heat Index: 39°   Visibility: 6mi
Dew Point: 38°   Wind: 3mph
Humidity: 96%   Direction: 300°WNW
Pressure: 29.94"   Gusts: NA
Location:  46.17°N, 123.92°W
Report Text: KAST 261355Z AUTO 30003KT 6SM BR CLR 04/03 A2994 RMK AO2 SLP137 T00390033
Loading
Personal Weather Stations






























Interactive Weather Map New forecast layout! Learn more

10-Day Weather Forecast

Advertisements
Track Severe Weather on mobile